createdAt,value
2018-04-11T00:00:48.362Z,23.37
2018-04-11T00:03:14.342Z,23.37
2018-04-11T00:05:40.324Z,23.36
2018-04-11T00:08:06.330Z,23.36
2018-04-11T00:10:32.281Z,23.35
2018-04-11T00:12:58.259Z,23.35
2018-04-11T00:15:24.238Z,23.36
2018-04-11T00:17:50.253Z,23.35
2018-04-11T00:20:16.237Z,23.35
2018-04-11T00:22:42.190Z,23.35
2018-04-11T00:25:08.176Z,23.35
2018-04-11T00:27:34.161Z,23.34
2018-04-11T00:30:00.138Z,23.35
2018-04-11T00:32:26.141Z,23.35
2018-04-11T00:34:52.097Z,23.34
2018-04-11T00:37:18.073Z,23.35
2018-04-11T00:39:44.089Z,23.33
2018-04-11T00:42:10.042Z,23.33
2018-04-11T00:44:36.019Z,23.33
2018-04-11T00:47:01.991Z,23.34
2018-04-11T00:49:28.023Z,23.33
2018-04-11T00:51:54.007Z,23.33
2018-04-11T00:54:19.978Z,23.33
2018-04-11T00:56:45.955Z,23.33
2018-04-11T00:59:11.971Z,23.33
2018-04-11T01:01:38.035Z,23.34
2018-04-11T01:04:04.012Z,23.34
2018-04-11T01:06:29.995Z,23.34
2018-04-11T01:08:55.977Z,23.34
2018-04-11T01:11:21.989Z,23.33
2018-04-11T01:13:47.977Z,23.34
2018-04-11T01:16:13.971Z,23.33
2018-04-11T01:18:39.956Z,23.33
2018-04-11T01:21:05.956Z,23.33
2018-04-11T01:23:31.936Z,23.33
2018-04-11T01:25:57.949Z,23.33
2018-04-11T01:28:23.901Z,23.33
2018-04-11T01:30:49.875Z,23.33
2018-04-11T01:33:15.861Z,23.33
2018-04-11T01:35:41.840Z,23.33
2018-04-11T01:38:07.852Z,23.33
2018-04-11T01:40:33.829Z,23.32
2018-04-11T01:42:59.813Z,23.33
2018-04-11T01:45:25.839Z,23.33
2018-04-11T01:47:51.785Z,23.33
2018-04-11T01:50:17.797Z,23.32
2018-04-11T01:52:43.777Z,23.34
2018-04-11T01:55:09.756Z,23.35
2018-04-11T01:57:35.728Z,23.35
2018-04-11T02:00:01.747Z,23.39
2018-04-11T02:02:27.690Z,23.41
2018-04-11T02:04:53.668Z,23.41
2018-04-11T02:07:19.684Z,23.40
2018-04-11T02:09:45.642Z,23.39
2018-04-11T02:12:11.630Z,23.39
2018-04-11T02:14:37.640Z,23.39
2018-04-11T02:17:03.612Z,23.38
2018-04-11T02:19:29.621Z,23.38
2018-04-11T02:21:55.599Z,23.39
2018-04-11T02:24:21.589Z,23.38
2018-04-11T02:26:47.588Z,23.38
2018-04-11T02:29:13.571Z,23.37
2018-04-11T02:31:39.550Z,23.37
2018-04-11T02:34:05.666Z,23.37
2018-04-11T02:36:31.612Z,23.38
2018-04-11T02:38:57.605Z,23.37
2018-04-11T02:41:23.620Z,23.38
2018-04-11T02:43:49.590Z,23.38
2018-04-11T02:46:15.598Z,23.39
2018-04-11T02:48:41.589Z,23.37
2018-04-11T02:51:07.540Z,23.39
2018-04-11T02:53:33.544Z,23.39
2018-04-11T02:55:59.496Z,23.38
2018-04-11T02:58:25.478Z,23.38
2018-04-11T03:00:51.458Z,23.38
2018-04-11T03:03:17.471Z,23.38
2018-04-11T03:05:43.419Z,23.37
2018-04-11T03:08:09.405Z,23.37
2018-04-11T03:10:35.399Z,23.36
2018-04-11T03:13:01.379Z,23.36
2018-04-11T03:15:27.377Z,23.37
2018-04-11T03:17:53.384Z,23.36
2018-04-11T03:20:19.407Z,23.35
2018-04-11T03:22:45.381Z,23.35
2018-04-11T03:25:11.356Z,23.35
2018-04-11T03:27:37.335Z,23.35
2018-04-11T03:30:03.283Z,23.35
2018-04-11T03:32:29.263Z,23.34
2018-04-11T03:34:55.244Z,23.35
2018-04-11T03:37:21.229Z,23.35
2018-04-11T03:39:47.245Z,23.36
2018-04-11T03:42:13.234Z,23.36
2018-04-11T03:44:39.266Z,23.36
2018-04-11T03:47:05.293Z,23.35
2018-04-11T03:49:31.273Z,23.36
2018-04-11T03:51:57.260Z,23.36
2018-04-11T03:54:23.244Z,23.37
2018-04-11T03:56:49.253Z,23.35
2018-04-11T03:59:15.204Z,23.36
2018-04-11T04:01:41.271Z,23.34
2018-04-11T04:04:07.166Z,23.34
2018-04-11T04:06:34.204Z,23.34
2018-04-11T04:09:00.227Z,23.34
2018-04-11T04:11:26.231Z,23.34
2018-04-11T04:13:52.251Z,23.34
2018-04-11T04:16:18.199Z,23.33
2018-04-11T04:18:44.220Z,23.31
2018-04-11T04:21:10.200Z,23.31
2018-04-11T04:23:36.258Z,23.31
2018-04-11T04:26:02.343Z,23.31
2018-04-11T04:28:28.295Z,23.31
2018-04-11T04:30:54.332Z,23.31
2018-04-11T04:33:20.316Z,23.32
2018-04-11T04:35:46.301Z,23.33
2018-04-11T04:38:12.313Z,23.32
2018-04-11T04:40:38.351Z,23.33
2018-04-11T04:43:04.348Z,23.34
2018-04-11T04:45:30.337Z,23.34
2018-04-11T04:47:56.335Z,23.36
2018-04-11T04:50:22.350Z,23.37
2018-04-11T04:52:48.341Z,23.39
2018-04-11T04:55:14.345Z,23.41
2018-04-11T04:57:40.335Z,23.38
2018-04-11T05:00:06.362Z,23.39
2018-04-11T05:02:32.373Z,23.40
2018-04-11T05:04:58.379Z,23.40
2018-04-11T05:07:24.580Z,23.42
2018-04-11T05:09:51.535Z,23.41
2018-04-11T05:12:18.502Z,23.41
2018-04-11T05:14:44.560Z,23.41
2018-04-11T05:17:10.534Z,23.41
2018-04-11T05:19:36.668Z,23.42
2018-04-11T05:22:02.686Z,23.43
2018-04-11T05:24:28.628Z,23.43
2018-04-11T05:26:54.625Z,23.43
2018-04-11T05:29:20.607Z,23.44
2018-04-11T05:31:46.663Z,23.44
2018-04-11T05:34:12.650Z,23.43
2018-04-11T05:36:38.635Z,23.43
2018-04-11T05:39:04.663Z,23.43
2018-04-11T05:41:30.685Z,23.43
2018-04-11T05:43:56.717Z,23.43
2018-04-11T05:46:22.745Z,23.43
2018-04-11T05:48:48.723Z,23.43
2018-04-11T05:51:14.735Z,23.41
2018-04-11T05:53:40.778Z,23.42
2018-04-11T05:56:06.783Z,23.41
2018-04-11T05:58:32.732Z,23.42
2018-04-11T06:00:58.764Z,23.42
2018-04-11T06:03:24.772Z,23.42
2018-04-11T06:05:50.747Z,23.41
2018-04-11T06:08:16.746Z,23.41
2018-04-11T06:10:42.782Z,23.42
2018-04-11T06:13:08.783Z,23.41
2018-04-11T06:15:34.841Z,23.41
2018-04-11T06:18:00.790Z,23.40
2018-04-11T06:20:26.813Z,23.39
2018-04-11T06:22:52.947Z,23.50
2018-04-11T06:25:18.814Z,23.50
2018-04-11T06:27:44.845Z,23.47
2018-04-11T06:30:10.831Z,23.44
2018-04-11T06:32:36.821Z,23.42
2018-04-11T06:35:02.834Z,23.42
2018-04-11T06:37:28.822Z,23.41
2018-04-11T06:39:54.803Z,23.41
2018-04-11T06:42:20.782Z,23.39
2018-04-11T06:44:46.813Z,23.38
2018-04-11T06:47:15.031Z,23.38
2018-04-11T06:49:41.045Z,23.39
2018-04-11T06:52:07.030Z,23.39
2018-04-11T06:54:33.005Z,23.39
2018-04-11T06:56:58.956Z,23.38
2018-04-11T06:59:25.051Z,23.38
2018-04-11T07:01:50.980Z,23.36
2018-04-11T07:04:16.926Z,23.34
2018-04-11T07:06:42.903Z,23.34
2018-04-11T07:09:08.927Z,23.33
2018-04-11T07:11:34.920Z,23.35
2018-04-11T07:14:00.896Z,23.36
2018-04-11T07:16:26.900Z,23.35
2018-04-11T07:18:52.883Z,23.36
2018-04-11T07:21:18.863Z,23.36
2018-04-11T07:23:44.876Z,23.37
2018-04-11T07:26:10.829Z,23.37
2018-04-11T07:28:36.828Z,23.38
2018-04-11T07:31:02.835Z,23.37
2018-04-11T07:33:28.785Z,23.37
2018-04-11T07:35:54.811Z,23.38
2018-04-11T07:38:20.774Z,23.38
2018-04-11T07:40:46.752Z,23.38
2018-04-11T07:43:12.762Z,23.42
2018-04-11T07:45:38.712Z,23.46
2018-04-11T07:48:04.700Z,23.48
2018-04-11T07:50:30.712Z,23.54
2018-04-11T07:52:56.663Z,23.49
2018-04-11T07:55:22.680Z,23.48
2018-04-11T07:57:48.656Z,23.61
2018-04-11T08:00:14.665Z,23.65
2018-04-11T08:02:40.614Z,23.58
2018-04-11T08:05:06.582Z,23.54
2018-04-11T08:07:32.571Z,23.52
2018-04-11T08:09:58.571Z,23.50
2018-04-11T08:12:24.597Z,23.49
2018-04-11T08:14:50.596Z,23.48
2018-04-11T08:17:16.515Z,23.47
2018-04-11T08:19:42.501Z,23.47
2018-04-11T08:22:08.514Z,23.47
2018-04-11T08:24:34.480Z,23.46
2018-04-11T08:27:00.495Z,23.46
2018-04-11T08:29:26.449Z,23.46
2018-04-11T08:31:52.420Z,23.45
2018-04-11T08:34:18.432Z,23.45
2018-04-11T08:36:44.379Z,23.45
2018-04-11T08:39:10.365Z,23.43
2018-04-11T08:41:36.361Z,23.43
2018-04-11T08:44:02.352Z,23.41
2018-04-11T08:46:28.363Z,23.43
2018-04-11T08:48:54.381Z,23.42
2018-04-11T08:51:20.393Z,23.43
2018-04-11T08:53:46.374Z,23.43
2018-04-11T08:56:12.391Z,23.44
2018-04-11T08:58:38.406Z,23.46
2018-04-11T09:01:04.386Z,23.47
2018-04-11T09:03:30.335Z,23.47
2018-04-11T09:05:56.374Z,23.48
2018-04-11T09:08:22.330Z,23.49
2018-04-11T09:10:48.318Z,23.50
2018-04-11T09:13:14.311Z,23.49
2018-04-11T09:15:40.338Z,23.49
2018-04-11T09:18:06.327Z,23.50
2018-04-11T09:20:32.348Z,23.51
2018-04-11T09:22:58.358Z,23.51
2018-04-11T09:25:24.338Z,23.51
2018-04-11T09:27:50.437Z,23.52
2018-04-11T09:30:16.390Z,23.52
2018-04-11T09:32:42.339Z,23.51
2018-04-11T09:35:08.382Z,23.50
2018-04-11T09:37:34.332Z,23.50
2018-04-11T09:40:00.341Z,23.51
2018-04-11T09:42:26.339Z,23.51
2018-04-11T09:44:52.312Z,23.51
2018-04-11T09:47:18.361Z,23.51
2018-04-11T09:49:44.348Z,23.53
2018-04-11T09:52:10.453Z,23.54
2018-04-11T09:54:36.442Z,23.56
2018-04-11T09:57:02.528Z,23.56
2018-04-11T09:59:28.537Z,23.58
2018-04-11T10:01:54.486Z,23.58
2018-04-11T10:04:20.505Z,23.57
2018-04-11T10:06:46.517Z,23.58
2018-04-11T10:09:12.459Z,23.58
2018-04-11T10:11:38.478Z,23.59
2018-04-11T10:14:04.436Z,23.59
2018-04-11T10:16:30.451Z,23.60
2018-04-11T10:18:56.407Z,23.58
2018-04-11T10:21:22.420Z,23.59
2018-04-11T10:23:48.402Z,23.57
2018-04-11T10:26:14.465Z,23.57
2018-04-11T10:28:40.412Z,23.57
2018-04-11T10:31:06.363Z,23.57
2018-04-11T10:33:32.344Z,23.58
2018-04-11T10:35:58.328Z,23.59
2018-04-11T10:38:24.308Z,23.59
2018-04-11T10:40:50.307Z,23.60
2018-04-11T10:43:16.289Z,23.60
2018-04-11T10:45:42.298Z,23.60
2018-04-11T10:48:08.330Z,23.64
2018-04-11T10:50:34.336Z,23.65
2018-04-11T10:53:00.312Z,23.66
2018-04-11T10:55:26.267Z,23.67
2018-04-11T10:57:52.288Z,23.68
2018-04-11T11:00:18.239Z,23.70
2018-04-11T11:02:44.273Z,23.69
2018-04-11T11:05:10.276Z,23.69
2018-04-11T11:07:36.273Z,23.70
2018-04-11T11:10:02.228Z,23.70
2018-04-11T11:12:28.209Z,23.69
2018-04-11T11:14:54.220Z,23.67
2018-04-11T11:17:20.200Z,23.69
2018-04-11T11:19:46.176Z,23.67
2018-04-11T11:22:12.159Z,23.67
2018-04-11T11:24:38.173Z,23.67
2018-04-11T11:27:04.155Z,23.67
2018-04-11T11:29:30.144Z,23.67
2018-04-11T11:31:56.162Z,23.66
2018-04-11T11:34:22.127Z,23.66
2018-04-11T11:36:48.113Z,23.67
2018-04-11T11:39:14.128Z,23.73
2018-04-11T11:41:40.073Z,23.74
2018-04-11T11:44:06.077Z,23.76
2018-04-11T11:46:32.035Z,23.78
2018-04-11T11:48:58.044Z,23.77
2018-04-11T11:51:24.023Z,23.79
2018-04-11T11:53:50.009Z,23.80
2018-04-11T11:56:16.022Z,23.78
2018-04-11T11:58:42.007Z,23.80
2018-04-11T12:01:07.955Z,23.83
2018-04-11T12:03:33.933Z,23.86
2018-04-11T12:05:59.955Z,23.90
2018-04-11T12:08:25.978Z,23.89
2018-04-11T12:10:51.924Z,23.91
2018-04-11T12:13:17.914Z,23.92
2018-04-11T12:15:43.959Z,23.91
2018-04-11T12:18:09.912Z,23.92
2018-04-11T12:20:35.903Z,23.92
2018-04-11T12:23:01.919Z,23.93
2018-04-11T12:25:27.945Z,23.93
2018-04-11T12:27:53.918Z,23.94
2018-04-11T12:30:19.963Z,23.95
2018-04-11T12:32:45.941Z,23.97
2018-04-11T12:35:11.957Z,23.96
2018-04-11T12:37:37.931Z,23.98
2018-04-11T12:40:03.909Z,23.97
2018-04-11T12:42:29.893Z,23.95
2018-04-11T12:44:55.880Z,23.95
2018-04-11T12:47:21.874Z,23.94
2018-04-11T12:49:47.860Z,23.97
2018-04-11T12:52:13.847Z,23.98
2018-04-11T12:54:39.876Z,23.99
2018-04-11T12:57:05.865Z,23.98
2018-04-11T12:59:31.881Z,24.00
2018-04-11T13:01:57.840Z,23.99
2018-04-11T13:04:23.830Z,23.97
2018-04-11T13:06:49.852Z,23.97
2018-04-11T13:09:15.865Z,23.97
2018-04-11T13:11:41.891Z,23.92
2018-04-11T13:14:07.903Z,23.93
2018-04-11T13:16:33.885Z,23.91
2018-04-11T13:19:00.221Z,23.87
2018-04-11T13:21:26.272Z,23.89
2018-04-11T13:23:52.256Z,23.90
2018-04-11T13:26:18.273Z,23.89
2018-04-11T13:28:44.270Z,23.89
2018-04-11T13:31:10.265Z,23.89
2018-04-11T13:33:36.263Z,23.90
2018-04-11T13:36:02.253Z,23.91
2018-04-11T13:38:28.269Z,23.93
2018-04-11T13:40:54.276Z,23.92
2018-04-11T13:43:20.285Z,23.94
2018-04-11T13:45:46.232Z,23.96
2018-04-11T13:48:12.215Z,23.96
2018-04-11T13:50:38.229Z,23.97
2018-04-11T13:53:04.186Z,23.97
2018-04-11T13:55:30.204Z,23.99
2018-04-11T13:57:56.191Z,24.00
2018-04-11T14:00:22.236Z,23.96
2018-04-11T14:02:48.182Z,23.96
2018-04-11T14:05:14.157Z,23.95
2018-04-11T14:07:40.149Z,23.95
2018-04-11T14:10:06.172Z,23.97
2018-04-11T14:12:32.156Z,23.96
2018-04-11T14:14:58.136Z,23.97
2018-04-11T14:17:24.142Z,23.97
2018-04-11T14:19:50.187Z,23.95
2018-04-11T14:22:16.104Z,23.95
2018-04-11T14:24:42.117Z,23.93
2018-04-11T14:27:08.112Z,23.91
2018-04-11T14:29:34.108Z,23.87
2018-04-11T14:32:00.095Z,23.85
2018-04-11T14:34:26.096Z,23.84
2018-04-11T14:36:52.109Z,23.84
2018-04-11T14:39:18.122Z,23.82
2018-04-11T14:41:44.190Z,23.81
2018-04-11T14:44:10.178Z,23.81
2018-04-11T14:46:36.159Z,23.79
2018-04-11T14:49:02.182Z,23.81
2018-04-11T14:51:28.199Z,23.80
2018-04-11T14:53:54.157Z,23.83
2018-04-11T14:56:20.151Z,23.85
2018-04-11T14:58:46.140Z,23.86
2018-04-11T15:01:12.211Z,23.86
2018-04-11T15:03:38.184Z,23.87
2018-04-11T15:06:04.198Z,23.85
2018-04-11T15:08:30.230Z,23.83
2018-04-11T15:10:56.527Z,23.83
2018-04-11T15:13:22.542Z,23.83
2018-04-11T15:15:48.555Z,23.87
2018-04-11T15:18:14.573Z,23.87
2018-04-11T15:20:40.997Z,23.85
2018-04-11T15:23:07.184Z,23.86
2018-04-11T15:25:33.168Z,23.86
2018-04-11T15:27:59.152Z,23.88
2018-04-11T15:30:25.143Z,23.86
2018-04-11T15:32:51.404Z,23.87
2018-04-11T15:35:17.381Z,23.89
2018-04-11T15:37:43.340Z,23.93
2018-04-11T15:40:09.464Z,23.94
2018-04-11T15:42:35.474Z,23.96
2018-04-11T15:45:01.428Z,23.95
2018-04-11T15:47:27.410Z,23.96
2018-04-11T15:49:53.427Z,23.97
2018-04-11T15:52:19.426Z,23.98
2018-04-11T15:54:45.378Z,23.98
2018-04-11T15:57:11.408Z,24.00
2018-04-11T15:59:37.363Z,23.99
2018-04-11T16:02:03.371Z,23.98
2018-04-11T16:04:29.398Z,23.98
2018-04-11T16:06:55.388Z,23.99
2018-04-11T16:09:21.445Z,23.99
2018-04-11T16:11:47.436Z,23.98
2018-04-11T16:14:13.443Z,24.00
2018-04-11T16:16:39.396Z,23.97
2018-04-11T16:19:05.452Z,23.98
2018-04-11T16:21:31.429Z,23.96
2018-04-11T16:23:57.498Z,23.95
2018-04-11T16:26:23.563Z,23.93
2018-04-11T16:28:49.601Z,23.92
2018-04-11T16:31:15.661Z,23.90
2018-04-11T16:33:41.976Z,23.92
2018-04-11T16:36:08.011Z,23.94
2018-04-11T16:38:33.995Z,23.94
2018-04-11T16:40:59.963Z,23.93
2018-04-11T16:43:25.977Z,23.94
2018-04-11T16:45:51.957Z,23.94
2018-04-11T16:48:17.939Z,23.93
2018-04-11T16:50:43.924Z,23.92
2018-04-11T16:53:09.916Z,23.92
2018-04-11T16:55:36.041Z,23.90
2018-04-11T16:58:02.081Z,23.91
2018-04-11T17:00:28.108Z,23.92
2018-04-11T17:02:54.060Z,23.93
2018-04-11T17:05:20.047Z,23.94
2018-04-11T17:07:46.160Z,23.93
2018-04-11T17:10:12.148Z,23.93
2018-04-11T17:12:38.165Z,23.93
2018-04-11T17:15:04.627Z,23.92
2018-04-11T17:17:30.624Z,23.92
2018-04-11T17:19:56.577Z,23.93
2018-04-11T17:22:22.879Z,23.93
2018-04-11T17:24:48.856Z,23.93
2018-04-11T17:27:14.843Z,23.93
2018-04-11T17:29:40.828Z,23.93
2018-04-11T17:32:06.812Z,23.93
2018-04-11T17:34:32.836Z,23.93
2018-04-11T17:36:58.820Z,23.92
2018-04-11T17:39:24.782Z,23.92
2018-04-11T17:41:51.314Z,23.92
2018-04-11T17:44:17.332Z,23.91
2018-04-11T17:46:43.349Z,23.91
2018-04-11T17:49:09.343Z,23.90
2018-04-11T17:51:35.375Z,23.90
2018-04-11T17:54:01.343Z,23.90
2018-04-11T17:56:27.356Z,23.90
2018-04-11T17:58:53.663Z,23.91
2018-04-11T18:01:19.641Z,23.89
2018-04-11T18:03:46.171Z,23.88
2018-04-11T18:06:12.192Z,23.87
2018-04-11T18:08:38.859Z,23.84
2018-04-11T18:11:04.845Z,23.84
2018-04-11T18:13:30.815Z,23.84
2018-04-11T18:15:56.845Z,23.85
2018-04-11T18:18:22.816Z,23.85
2018-04-11T18:20:48.803Z,23.86
2018-04-11T18:23:14.840Z,23.85
2018-04-11T18:25:40.921Z,23.84
2018-04-11T18:28:10.713Z,23.84
2018-04-11T18:30:36.958Z,23.87
2018-04-11T18:33:02.987Z,23.89
2018-04-11T18:35:29.092Z,23.93
2018-04-11T18:37:55.118Z,23.92
2018-04-11T18:40:21.117Z,23.91
2018-04-11T18:42:47.153Z,23.90
2018-04-11T18:45:13.173Z,23.87
2018-04-11T18:47:39.325Z,23.88
2018-04-11T18:50:05.403Z,23.87
2018-04-11T18:52:31.423Z,23.86
2018-04-11T18:54:57.463Z,23.85
2018-04-11T18:57:23.488Z,23.84
2018-04-11T18:59:49.649Z,23.84
2018-04-11T19:02:15.634Z,23.84
2018-04-11T19:04:41.664Z,23.83
2018-04-11T19:07:07.655Z,23.83
2018-04-11T19:09:33.678Z,23.83
2018-04-11T19:11:59.700Z,23.82
2018-04-11T19:14:25.675Z,23.82
2018-04-11T19:16:51.683Z,23.81
2018-04-11T19:19:17.717Z,23.80
2018-04-11T19:21:43.684Z,23.80
2018-04-11T19:24:09.672Z,23.81
2018-04-11T19:26:35.654Z,23.81
2018-04-11T19:29:01.679Z,23.81
2018-04-11T19:31:27.678Z,23.85
2018-04-11T19:33:53.872Z,23.88
2018-04-11T19:36:19.855Z,23.91
2018-04-11T19:38:45.859Z,23.90
2018-04-11T19:41:11.883Z,23.91
2018-04-11T19:43:37.829Z,23.89
2018-04-11T19:46:03.808Z,23.88
2018-04-11T19:48:29.799Z,23.89
2018-04-11T19:50:55.817Z,23.89
2018-04-11T19:53:21.819Z,23.88
2018-04-11T19:55:47.802Z,23.88
2018-04-11T19:58:13.774Z,23.88
2018-04-11T20:00:39.795Z,23.88
2018-04-11T20:03:05.789Z,23.88
2018-04-11T20:05:31.772Z,23.89
2018-04-11T20:07:57.785Z,23.87
2018-04-11T20:10:23.743Z,23.86
2018-04-11T20:12:49.736Z,23.85
2018-04-11T20:15:15.831Z,23.84
2018-04-11T20:17:41.815Z,23.84
2018-04-11T20:20:07.802Z,23.82
2018-04-11T20:22:33.822Z,23.82
2018-04-11T20:24:59.875Z,23.82
2018-04-11T20:27:25.862Z,23.80
2018-04-11T20:29:51.892Z,23.79
2018-04-11T20:32:17.919Z,23.79
2018-04-11T20:34:43.984Z,23.80
2018-04-11T20:37:09.997Z,23.78
2018-04-11T20:39:35.944Z,23.78
2018-04-11T20:42:02.071Z,23.78
2018-04-11T20:44:28.047Z,23.77
2018-04-11T20:46:54.059Z,23.76
2018-04-11T20:49:20.049Z,23.76
2018-04-11T20:51:46.053Z,23.76
2018-04-11T20:54:12.090Z,23.76
2018-04-11T20:56:38.040Z,23.75
2018-04-11T20:59:04.018Z,23.75
2018-04-11T21:01:30.004Z,23.75
2018-04-11T21:03:55.994Z,23.74
2018-04-11T21:06:21.989Z,23.74
2018-04-11T21:08:47.969Z,23.74
2018-04-11T21:11:13.960Z,23.73
2018-04-11T21:13:40.007Z,23.73
2018-04-11T21:16:06.002Z,23.73
2018-04-11T21:18:31.939Z,23.72
2018-04-11T21:20:57.930Z,23.71
2018-04-11T21:23:23.916Z,23.70
2018-04-11T21:25:49.899Z,23.70
2018-04-11T21:28:15.913Z,23.70
2018-04-11T21:30:41.922Z,23.70
2018-04-11T21:33:07.908Z,23.69
2018-04-11T21:35:33.899Z,23.70
2018-04-11T21:37:59.886Z,23.69
2018-04-11T21:40:25.866Z,23.70
2018-04-11T21:42:51.898Z,23.69
2018-04-11T21:45:17.914Z,23.68
2018-04-11T21:47:43.847Z,23.68
2018-04-11T21:50:09.850Z,23.67
2018-04-11T21:52:35.832Z,23.68
2018-04-11T21:55:01.811Z,23.67
2018-04-11T21:57:27.819Z,23.68
2018-04-11T21:59:53.804Z,23.68
2018-04-11T22:02:19.819Z,23.68
2018-04-11T22:04:45.951Z,23.67
2018-04-11T22:07:11.942Z,23.67
2018-04-11T22:09:37.962Z,23.67
2018-04-11T22:12:03.913Z,23.65
2018-04-11T22:14:29.890Z,23.66
2018-04-11T22:16:55.871Z,23.66
2018-04-11T22:19:21.848Z,23.65
2018-04-11T22:21:47.842Z,23.66
2018-04-11T22:24:13.821Z,23.65
2018-04-11T22:26:39.835Z,23.65
2018-04-11T22:29:05.848Z,23.65
2018-04-11T22:31:31.796Z,23.64
2018-04-11T22:33:57.782Z,23.64
2018-04-11T22:36:23.849Z,23.64
2018-04-11T22:38:49.743Z,23.64
2018-04-11T22:41:15.719Z,23.64
2018-04-11T22:43:41.739Z,23.63
2018-04-11T22:46:07.761Z,23.63
2018-04-11T22:48:33.748Z,23.63
2018-04-11T22:50:59.758Z,23.63
2018-04-11T22:53:25.713Z,23.64
2018-04-11T22:55:51.774Z,23.63
2018-04-11T22:58:17.723Z,23.63
2018-04-11T23:00:43.736Z,23.63
2018-04-11T23:03:09.714Z,23.63
2018-04-11T23:05:35.693Z,23.62
2018-04-11T23:08:01.683Z,23.62
2018-04-11T23:10:27.662Z,23.62
2018-04-11T23:12:53.706Z,23.62
2018-04-11T23:15:19.685Z,23.61
2018-04-11T23:17:45.698Z,23.61
2018-04-11T23:20:11.660Z,23.61
2018-04-11T23:22:37.643Z,23.61
2018-04-11T23:25:03.671Z,23.61
2018-04-11T23:27:29.655Z,23.61
2018-04-11T23:29:55.664Z,23.60
2018-04-11T23:32:21.649Z,23.61
2018-04-11T23:34:47.631Z,23.59
2018-04-11T23:37:13.612Z,23.60
2018-04-11T23:39:39.591Z,23.60
2018-04-11T23:42:05.577Z,23.60
2018-04-11T23:44:31.559Z,23.60
2018-04-11T23:46:57.546Z,23.60
2018-04-11T23:49:23.527Z,23.59
2018-04-11T23:51:49.564Z,23.59
2018-04-11T23:54:15.560Z,23.59
2018-04-11T23:56:41.542Z,23.59
2018-04-11T23:59:07.533Z,23.59
